Time;durP1;ratioP1;P1;durP2;ratioP2;P2;SDS_P1;SDS_P2;PMS_P1;PMS_P2;Temp;Humidity;BMP_temperature;BMP_pressure;BME280_temperature;BME280_humidity;BME280_pressure;Samples;Min_cycle;Max_cycle;Signal;HPM_P1;HPM_P2
2024/01/20 00:02:59;;;;;;;94.97;14.25;;;;;;;1.67;100.00;100237.47;10254553;28;20492;-82
2024/01/20 00:07:59;;;;;;;162.18;16.02;;;;;;;1.81;100.00;100276.59;10254496;28;20078;-82
2024/01/20 00:13:00;;;;;;;127.05;13.38;;;;;;;1.52;100.00;100234.22;10254079;28;20035;-82
2024/01/20 00:18:01;;;;;;;72.55;13.70;;;;;;;1.80;100.00;100291.47;10253251;28;20514;-82
2024/01/20 00:23:02;;;;;;;86.43;13.05;;;;;;;1.35;100.00;100227.63;10252592;29;20035;-83
2024/01/20 00:28:03;;;;;;;65.07;13.63;;;;;;;1.46;100.00;100232.03;10253272;28;20102;-83
2024/01/20 00:33:08;;;;;;;127.03;14.10;;;;;;;1.78;100.00;100282.88;10252890;28;20035;-83
2024/01/20 00:38:09;;;;;;;97.07;13.35;;;;;;;1.77;100.00;100268.13;10252485;28;20047;-82
2024/01/20 00:43:10;;;;;;;110.50;13.38;;;;;;;1.53;100.00;100207.09;10252952;28;20063;-82
2024/01/20 00:48:10;;;;;;;98.15;13.55;;;;;;;1.78;100.00;100259.31;10252193;28;20496;-82
2024/01/20 00:53:11;;;;;;;105.53;12.32;;;;;;;1.83;100.00;100262.44;10252753;28;20499;-82
2024/01/20 00:58:12;;;;;;;131.95;12.38;;;;;;;1.86;100.00;100245.66;10251597;28;20042;-82
2024/01/20 01:03:12;;;;;;;108.22;11.13;;;;;;;1.86;100.00;100250.91;10251923;28;20043;-83
2024/01/20 01:08:13;;;;;;;94.75;12.93;;;;;;;1.83;100.00;100241.47;10252040;28;20115;-82
2024/01/20 01:13:14;;;;;;;138.10;12.98;;;;;;;1.75;100.00;100238.59;10251986;28;20046;-83
2024/01/20 01:18:15;;;;;;;124.85;12.93;;;;;;;1.72;100.00;100237.97;10251267;28;20571;-83
2024/01/20 01:23:15;;;;;;;82.95;11.38;;;;;;;1.82;100.00;100252.91;10251875;28;20039;-82
2024/01/20 01:28:16;;;;;;;114.28;11.00;;;;;;;1.76;100.00;100226.31;10251733;28;20467;-82
2024/01/20 01:33:17;;;;;;;85.25;10.73;;;;;;;1.79;100.00;100239.19;10251578;28;20050;-82
2024/01/20 01:38:17;;;;;;;104.55;11.80;;;;;;;1.79;100.00;100236.56;10251930;28;20077;-81
2024/01/20 01:43:18;;;;;;;85.07;10.93;;;;;;;1.75;100.00;100250.84;10250715;28;20512;-82
2024/01/20 01:48:21;;;;;;;76.25;9.95;;;;;;;1.43;100.00;100204.31;10250798;28;20059;-82
2024/01/20 01:53:22;;;;;;;62.80;11.35;;;;;;;1.60;100.00;100244.97;10250906;28;20071;-79
2024/01/20 01:58:24;;;;;;;58.08;10.23;;;;;;;1.65;100.00;100284.75;10250944;28;20074;-81
2024/01/20 02:03:26;;;;;;;42.72;9.15;;;;;;;1.58;100.00;100270.41;10250425;28;20078;-81
2024/01/20 02:08:27;;;;;;;49.67;8.77;;;;;;;1.49;100.00;100263.22;10249258;29;20047;-79
2024/01/20 02:13:28;;;;;;;47.97;10.45;;;;;;;1.24;100.00;100211.84;10257533;28;20039;-80
2024/01/20 02:18:29;;;;;;;67.25;9.27;;;;;;;1.63;100.00;100265.69;10258112;29;20042;-79
2024/01/20 02:23:31;;;;;;;73.55;9.90;;;;;;;1.65;100.00;100258.56;10257680;28;20047;-80
2024/01/20 02:28:32;;;;;;;52.65;7.65;;;;;;;1.53;100.00;100264.69;10256919;28;20047;-79
2024/01/20 02:33:33;;;;;;;22.08;7.72;;;;;;;1.65;100.00;100276.88;10258347;28;20098;-79
2024/01/20 02:38:33;;;;;;;26.08;7.45;;;;;;;1.26;100.00;100216.03;10257366;29;20377;-79
2024/01/20 02:43:34;;;;;;;67.93;7.20;;;;;;;1.48;100.00;100266.81;10257610;29;20055;-79
2024/01/20 02:48:35;;;;;;;51.35;7.95;;;;;;;1.18;100.00;100228.00;10257226;29;20471;-80
2024/01/20 02:53:35;;;;;;;26.83;7.40;;;;;;;1.33;100.00;100253.88;10256617;29;20496;-79
2024/01/20 02:58:36;;;;;;;29.55;7.65;;;;;;;1.48;100.00;100270.25;10255883;29;20046;-77
2024/01/20 03:03:40;;;;;;;60.95;8.02;;;;;;;1.53;100.00;100269.94;10256184;28;20464;-79
2024/01/20 03:08:41;;;;;;;35.15;7.03;;;;;;;1.36;100.00;100255.44;10256571;28;20102;-79
2024/01/20 03:13:41;;;;;;;47.80;8.77;;;;;;;1.05;100.00;100223.66;10256953;28;20078;-79
2024/01/20 03:18:42;;;;;;;70.80;8.50;;;;;;;1.31;100.00;100268.84;10256412;29;20102;-78
2024/01/20 03:23:43;;;;;;;39.78;7.40;;;;;;;1.10;100.00;100223.31;10255458;28;20047;-79
2024/01/20 03:28:44;;;;;;;41.40;8.05;;;;;;;1.35;100.00;100280.78;10255827;29;20050;-78
2024/01/20 03:33:45;;;;;;;40.28;7.35;;;;;;;1.26;100.00;100272.78;10255193;29;20039;-78
2024/01/20 03:38:45;;;;;;;21.45;7.18;;;;;;;1.24;100.00;100293.78;10254858;29;20109;-78
2024/01/20 03:43:46;;;;;;;40.60;8.85;;;;;;;1.07;100.00;100260.97;10255902;28;20059;-78
2024/01/20 03:48:47;;;;;;;65.40;7.90;;;;;;;0.92;100.00;100262.06;10254976;29;20054;-79
2024/01/20 03:53:48;;;;;;;53.10;8.50;;;;;;;1.13;100.00;100305.00;10254388;29;20043;-78
2024/01/20 03:58:50;;;;;;;178.75;12.35;;;;;;;1.08;100.00;100308.94;10254644;29;20039;-77
2024/01/20 04:03:51;;;;;;;95.65;10.10;;;;;;;1.01;100.00;100286.75;10253958;28;20500;-76
2024/01/20 04:08:51;;;;;;;106.78;10.35;;;;;;;0.64;100.00;100245.69;10254653;28;20042;-77
2024/01/20 04:13:52;;;;;;;82.88;8.82;;;;;;;1.00;100.00;100304.22;10253106;28;20047;-76
2024/01/20 04:18:53;;;;;;;145.02;10.48;;;;;;;0.62;100.00;100268.50;10253197;28;20763;-77
2024/01/20 04:23:54;;;;;;;287.08;13.88;;;;;;;0.88;100.00;100299.84;10253778;28;20130;-77
2024/01/20 04:28:54;;;;;;;180.85;13.38;;;;;;;0.80;100.00;100289.91;10252335;29;20054;-77
2024/01/20 04:33:57;;;;;;;266.08;16.52;;;;;;;0.44;100.00;100241.84;10252224;28;20039;-77
2024/01/20 04:38:58;;;;;;;228.70;13.10;;;;;;;0.75;100.00;100305.09;10252434;28;20063;-77
2024/01/20 04:43:58;;;;;;;170.93;12.20;;;;;;;0.81;100.00;100288.97;10251481;29;20094;-79
2024/01/20 04:48:59;;;;;;;376.90;15.18;;;;;;;0.78;100.00;100273.50;10252652;28;20153;-77
2024/01/20 04:54:00;;;;;;;270.63;12.45;;;;;;;0.68;100.00;100262.84;10248932;28;20043;-77
2024/01/20 04:59:01;;;;;;;355.70;16.92;;;;;;;0.70;100.00;100277.59;10252038;28;20043;-78
2024/01/20 05:04:01;;;;;;;296.63;15.55;;;;;;;0.63;100.00;100253.66;10252296;28;20046;-77
2024/01/20 05:09:02;;;;;;;327.48;13.60;;;;;;;0.72;100.00;100273.94;10252494;28;20039;-79
2024/01/20 05:14:03;;;;;;;275.60;16.52;;;;;;;0.45;100.00;100222.63;10251496;28;20058;-79
2024/01/20 05:19:04;;;;;;;290.75;15.93;;;;;;;0.90;100.00;100275.25;10251461;28;20075;-78
2024/01/20 05:24:05;;;;;;;333.50;15.38;;;;;;;1.04;100.00;100269.03;10251215;28;20043;-79
2024/01/20 05:29:06;;;;;;;359.25;13.82;;;;;;;1.25;100.00;100276.31;10251113;28;20102;-78
2024/01/20 05:34:07;;;;;;;193.10;9.75;;;;;;;1.17;100.00;100289.97;10252071;28;20054;-79
2024/01/20 05:39:07;;;;;;;220.93;9.40;;;;;;;1.28;100.00;100279.53;10250799;28;20047;-80
2024/01/20 05:44:09;;;;;;;100.40;7.40;;;;;;;0.85;100.00;100216.38;10252262;28;20058;-80
2024/01/20 05:49:09;;;;;;;150.73;10.65;;;;;;;1.34;100.00;100294.78;10257125;28;20062;-76
2024/01/20 05:54:10;;;;;;;130.93;9.50;;;;;;;1.28;100.00;100302.25;10259013;28;20039;-81
2024/01/20 05:59:11;;;;;;;83.53;8.07;;;;;;;1.41;100.00;100312.69;10259048;28;20047;-80
2024/01/20 06:04:12;;;;;;;55.20;7.65;;;;;;;1.64;100.00;100305.78;10258034;28;20102;-80
2024/01/20 06:09:12;;;;;;;62.20;7.75;;;;;;;1.86;100.00;100305.91;10257059;29;20047;-80
2024/01/20 06:14:13;;;;;;;23.25;6.07;;;;;;;2.28;100.00;100322.00;10258887;28;20043;-80
2024/01/20 06:19:14;;;;;;;14.02;6.35;;;;;;;2.48;100.00;100315.22;10257850;29;20423;-85
2024/01/20 06:24:15;;;;;;;15.43;6.05;;;;;;;2.77;100.00;100315.63;10257561;28;20043;-76
2024/01/20 06:29:16;;;;;;;8.93;5.50;;;;;;;2.96;100.00;100320.28;10257538;29;20050;-79
2024/01/20 06:34:16;;;;;;;9.52;5.40;;;;;;;2.71;100.00;100311.69;10258323;29;20043;-76
2024/01/20 06:39:17;;;;;;;9.77;5.82;;;;;;;2.52;100.00;100314.06;10257619;29;20047;-77
2024/01/20 06:44:19;;;;;;;8.48;5.90;;;;;;;2.55;100.00;100319.06;10257332;29;20066;-76
2024/01/20 06:49:20;;;;;;;12.57;6.22;;;;;;;2.77;100.00;100304.31;10256758;29;20235;-77
2024/01/20 06:54:21;;;;;;;9.90;5.60;;;;;;;3.17;100.00;100279.25;10257419;29;20118;-76
2024/01/20 06:59:21;;;;;;;9.48;5.93;;;;;;;3.14;100.00;100229.63;10256189;28;20040;-77
2024/01/20 07:04:22;;;;;;;9.55;6.40;;;;;;;3.71;100.00;100284.56;10256855;29;20047;-75
2024/01/20 07:09:23;;;;;;;9.77;6.15;;;;;;;3.42;100.00;100251.00;10256017;29;20043;-79
2024/01/20 07:14:25;;;;;;;9.30;6.30;;;;;;;3.71;100.00;100280.16;10256863;29;20050;-80
2024/01/20 07:19:26;;;;;;;7.78;5.72;;;;;;;4.25;100.00;100286.25;10256005;29;20046;-79
2024/01/20 07:24:27;;;;;;;9.90;6.13;;;;;;;4.44;100.00;100272.38;10250325;28;20043;-80
2024/01/20 07:29:28;;;;;;;8.05;6.20;;;;;;;4.71;100.00;100298.94;10250458;29;20051;-76
2024/01/20 07:34:29;;;;;;;7.65;5.50;;;;;;;4.90;100.00;100300.81;10255213;28;20050;-71
2024/01/20 07:39:30;;;;;;;7.80;6.13;;;;;;;4.99;100.00;100289.50;10255470;28;20043;-78
2024/01/20 07:44:30;;;;;;;7.93;6.18;;;;;;;5.25;100.00;100305.66;10255352;29;20141;-72
2024/01/20 07:49:32;;;;;;;8.18;6.15;;;;;;;5.58;100.00;100297.53;10246858;28;20047;-70
2024/01/20 07:54:32;;;;;;;8.70;6.40;;;;;;;5.63;100.00;100282.16;10237441;28;20635;-75
2024/01/20 07:59:33;;;;;;;8.57;6.18;;;;;;;5.76;100.00;100261.63;10253350;29;20182;-73
2024/01/20 08:04:34;;;;;;;11.68;6.57;;;;;;;6.00;100.00;100274.41;10254555;28;20058;-72
2024/01/20 08:09:35;;;;;;;11.35;6.70;;;;;;;6.18;100.00;100274.53;10252900;28;20039;-74
2024/01/20 08:14:36;;;;;;;9.07;6.90;;;;;;;6.24;100.00;100242.31;10254276;28;20046;-74
2024/01/20 08:19:36;;;;;;;10.10;6.32;;;;;;;6.60;100.00;100253.84;10252410;29;20129;-72
2024/01/20 08:24:37;;;;;;;8.95;6.47;;;;;;;6.89;98.73;100246.81;10253539;28;20039;-73
2024/01/20 08:29:38;;;;;;;9.85;6.20;;;;;;;7.27;97.71;100256.34;10253433;28;20047;-75
2024/01/20 08:34:38;;;;;;;8.30;6.65;;;;;;;7.52;96.57;100252.13;10253406;28;20066;-71
2024/01/20 08:39:39;;;;;;;9.40;6.43;;;;;;;7.60;95.61;100254.84;10253041;28;20500;-71
2024/01/20 08:44:40;;;;;;;13.20;7.10;;;;;;;7.81;95.06;100251.91;10253019;28;20051;-71
2024/01/20 08:49:41;;;;;;;9.68;6.68;;;;;;;7.90;94.64;100221.06;10252895;28;20043;-71
2024/01/20 08:54:41;;;;;;;8.80;6.60;;;;;;;7.94;93.79;100220.59;10250757;28;20090;-72
2024/01/20 08:59:42;;;;;;;14.07;6.32;;;;;;;8.13;92.89;100251.31;10246002;29;20130;-71
2024/01/20 09:04:43;;;;;;;11.90;6.57;;;;;;;8.31;92.46;100253.91;10251169;28;20078;-73
2024/01/20 09:09:44;;;;;;;12.93;7.00;;;;;;;8.62;91.63;100237.59;10252217;28;20074;-72
2024/01/20 09:14:45;;;;;;;9.45;6.90;;;;;;;8.85;90.29;100243.13;10251900;28;20580;-73
2024/01/20 09:19:46;;;;;;;10.43;6.55;;;;;;;8.79;90.56;100228.72;10247054;28;20035;-69
2024/01/20 09:24:47;;;;;;;11.75;7.18;;;;;;;8.64;90.64;100230.31;10232101;29;20106;-72
2024/01/20 09:29:48;;;;;;;14.38;6.95;;;;;;;8.66;90.52;100228.34;10230577;29;20032;-71
2024/01/20 09:34:48;;;;;;;16.95;7.07;;;;;;;8.60;90.48;100237.72;10239183;28;20036;-72
2024/01/20 09:39:50;;;;;;;11.80;7.90;;;;;;;8.72;90.41;100233.00;10230659;28;20050;-74
2024/01/20 09:44:51;;;;;;;11.00;7.22;;;;;;;8.72;89.53;100222.41;10235301;29;20058;-75
2024/01/20 09:49:52;;;;;;;13.88;8.27;;;;;;;8.90;89.41;100240.84;10241678;28;20137;-73
2024/01/20 09:55:12;;;;;;;12.73;7.75;;;;;;;8.94;87.56;100196.31;10250143;28;20507;-74
2024/01/20 10:00:14;;;;;;;10.85;8.05;;;;;;;9.14;87.95;100229.50;10249971;29;20043;-73
2024/01/20 10:05:15;;;;;;;14.73;11.60;;;;;;;8.91;89.32;100239.84;10250055;29;20411;-74
2024/01/20 10:10:20;;;;;;;20.77;10.95;;;;;;;8.72;89.78;100242.75;10250457;28;20043;-73
2024/01/20 10:15:26;;;;;;;15.02;10.65;;;;;;;8.41;90.58;100243.28;10251475;28;20514;-73
2024/01/20 10:20:32;;;;;;;13.52;8.75;;;;;;;8.27;91.46;100241.16;10250644;28;20045;-72
2024/01/20 10:25:33;;;;;;;14.20;8.90;;;;;;;7.95;92.08;100224.88;10249986;29;20043;-74
2024/01/20 10:30:38;;;;;;;17.65;9.13;;;;;;;7.84;92.88;100222.50;10249930;28;20039;-74
2024/01/20 10:35:39;;;;;;;10.85;8.23;;;;;;;7.73;92.81;100202.41;10256108;29;20053;-74
2024/01/20 10:40:42;;;;;;;14.45;11.15;;;;;;;7.98;93.00;100226.38;10251161;29;20051;-76
2024/01/20 10:45:56;;;;;;;12.87;9.37;;;;;;;8.08;92.01;100221.03;10258010;28;20085;-76
2024/01/20 10:51:04;;;;;;;23.85;10.10;;;;;;;7.84;92.67;100190.78;10238503;29;20083;-76
2024/01/20 10:56:07;;;;;;;33.28;20.13;;;;;;;8.14;92.42;100202.72;10255455;28;20051;-75
2024/01/20 11:01:09;;;;;;;36.25;17.70;;;;;;;8.42;91.99;100224.56;10255299;28;20047;-76
2024/01/20 11:06:21;;;;;;;29.58;19.33;;;;;;;8.66;90.79;100226.50;10248398;28;20122;-79
2024/01/20 11:11:27;;;;;;;21.35;12.77;;;;;;;8.61;89.54;100204.13;10254169;29;20051;-76
2024/01/20 11:16:34;;;;;;;20.27;14.30;;;;;;;8.72;88.63;100198.56;10252942;29;20069;-83
2024/01/20 11:21:35;;;;;;;22.45;11.02;;;;;;;8.97;89.71;100243.69;10254873;28;20043;-85
2024/01/20 11:26:37;;;;;;;14.48;9.68;;;;;;;8.99;88.82;100257.63;10232530;28;20155;-76
2024/01/20 11:31:37;;;;;;;16.58;10.32;;;;;;;8.76;88.69;100196.41;10214951;29;20039;-76
2024/01/20 11:36:38;;;;;;;23.23;15.13;;;;;;;9.01;88.18;100232.63;10233438;29;20062;-76
2024/01/20 11:41:40;;;;;;;22.27;13.50;;;;;;;8.99;88.56;100258.44;10255538;28;20083;-75
2024/01/20 11:46:40;;;;;;;15.93;11.30;;;;;;;8.91;88.95;100263.69;10253670;28;20055;-77
2024/01/20 11:51:41;;;;;;;23.00;14.35;;;;;;;8.86;88.99;100268.66;10253705;28;20646;-85
2024/01/20 11:56:42;;;;;;;13.15;9.73;;;;;;;8.87;88.93;100286.22;10249233;28;20051;-78
2024/01/20 12:01:43;;;;;;;10.80;7.97;;;;;;;8.84;88.68;100279.41;10249003;28;20067;-79
2024/01/20 12:06:44;;;;;;;10.90;6.85;;;;;;;8.82;88.43;100244.28;10253246;28;20178;-73
2024/01/20 12:11:44;;;;;;;17.20;9.25;;;;;;;8.86;88.21;100255.41;10251971;29;20531;-80
2024/01/20 12:16:47;;;;;;;26.70;17.70;;;;;;;8.96;87.88;100272.00;10242556;28;20058;-75
2024/01/20 12:21:48;;;;;;;18.65;11.00;;;;;;;8.73;87.55;100213.47;10257636;28;20047;-76
2024/01/20 12:26:49;;;;;;;20.05;9.38;;;;;;;8.98;87.42;100255.97;10254080;28;20452;-79
2024/01/20 12:31:50;;;;;;;15.68;9.70;;;;;;;8.88;87.82;100261.38;10249325;28;20117;-76
2024/01/20 12:36:54;;;;;;;39.45;10.70;;;;;;;8.80;88.47;100259.53;10251774;28;20043;-76
2024/01/20 12:41:55;;;;;;;32.30;14.07;;;;;;;8.55;88.83;100225.94;10251108;28;20039;-76
2024/01/20 12:46:56;;;;;;;27.25;14.70;;;;;;;8.39;90.05;100218.75;10252650;28;20500;-73
2024/01/20 12:51:57;;;;;;;28.58;13.48;;;;;;;8.41;91.00;100259.16;10251778;28;20057;-76
2024/01/20 12:56:58;;;;;;;25.08;12.70;;;;;;;8.38;91.32;100267.38;10252350;28;20066;-76
2024/01/20 13:01:59;;;;;;;19.52;13.07;;;;;;;8.06;91.88;100229.09;10252939;28;20035;-76
2024/01/20 13:07:00;;;;;;;18.73;13.05;;;;;;;8.10;92.57;100245.50;10250973;28;20047;-76
2024/01/20 13:12:02;;;;;;;16.60;10.95;;;;;;;8.16;93.01;100269.50;10251590;28;20051;-76
2024/01/20 13:17:03;;;;;;;15.77;10.45;;;;;;;8.10;93.30;100266.66;10252036;28;20428;-76
2024/01/20 13:22:04;;;;;;;14.85;9.85;;;;;;;7.81;93.77;100246.59;10251341;28;20047;-77
2024/01/20 13:27:04;;;;;;;19.67;11.32;;;;;;;7.62;93.94;100225.59;10251270;29;20039;-77
2024/01/20 13:32:06;;;;;;;18.45;10.13;;;;;;;7.78;94.60;100279.47;10251542;28;20039;-76
2024/01/20 13:37:07;;;;;;;21.75;9.45;;;;;;;7.69;95.32;100263.69;10251295;28;20455;-76
2024/01/20 13:42:09;;;;;;;15.65;10.38;;;;;;;7.58;95.32;100290.34;10250916;29;20066;-75
2024/01/20 13:47:10;;;;;;;16.98;11.27;;;;;;;7.54;95.81;100309.16;10250497;28;20606;-77
2024/01/20 13:52:11;;;;;;;18.60;12.38;;;;;;;7.30;95.91;100275.38;10244806;28;20154;-72
2024/01/20 13:57:12;;;;;;;22.02;11.20;;;;;;;7.27;96.58;100280.94;10246518;29;20051;-73
2024/01/20 14:02:12;;;;;;;33.60;21.13;;;;;;;7.22;96.95;100291.13;10250203;28;20527;-74
2024/01/20 14:07:15;;;;;;;37.25;16.10;;;;;;;7.07;97.62;100296.06;10253613;28;20047;-77
2024/01/20 14:12:15;;;;;;;29.02;13.10;;;;;;;6.76;98.10;100292.00;10259079;28;20173;-80
2024/01/20 14:17:16;;;;;;;25.08;11.68;;;;;;;6.29;98.41;100253.28;10257014;28;20039;-73
2024/01/20 14:22:20;;;;;;;37.00;15.98;;;;;;;6.15;99.34;100264.25;10256324;28;20126;-73
2024/01/20 14:27:21;;;;;;;29.30;14.55;;;;;;;6.45;100.00;100289.59;10256065;28;20039;-79
2024/01/20 14:32:22;;;;;;;17.98;13.57;;;;;;;6.62;100.00;100288.88;10257817;28;20078;-78
2024/01/20 14:37:23;;;;;;;17.42;13.05;;;;;;;6.57;100.00;100240.94;10256886;29;20523;-79
2024/01/20 14:42:24;;;;;;;18.42;12.98;;;;;;;6.99;100.00;100282.75;10257465;28;20059;-78
2024/01/20 14:47:25;;;;;;;15.43;11.98;;;;;;;7.15;100.00;100332.31;10247373;28;20048;-82
2024/01/20 14:52:25;;;;;;;20.83;12.90;;;;;;;7.20;100.00;100348.53;10216795;29;20497;-78
2024/01/20 14:57:26;;;;;;;22.95;14.40;;;;;;;6.91;100.00;100338.13;10217557;29;20048;-73
2024/01/20 15:02:27;;;;;;;17.58;12.63;;;;;;;6.78;100.00;100342.88;10246249;28;20043;-76
2024/01/20 15:07:28;;;;;;;21.10;12.57;;;;;;;6.36;100.00;100301.84;10233781;29;20047;-74
2024/01/20 15:12:28;;;;;;;29.20;18.30;;;;;;;6.61;100.00;100358.47;10255191;28;20040;-76
2024/01/20 15:17:30;;;;;;;21.33;14.93;;;;;;;6.38;100.00;100349.22;10254435;28;20062;-75
2024/01/20 15:22:30;;;;;;;18.42;14.27;;;;;;;6.24;100.00;100360.19;10255148;28;20051;-76
2024/01/20 15:27:31;;;;;;;20.23;13.63;;;;;;;5.92;100.00;100362.09;10255935;28;20043;-75
2024/01/20 15:32:32;;;;;;;77.85;51.65;;;;;;;5.79;100.00;100352.78;10255939;28;20049;-75
2024/01/20 15:37:33;;;;;;;37.20;23.92;;;;;;;5.24;100.00;100324.25;10254954;28;20074;-75
2024/01/20 15:42:34;;;;;;;31.00;21.00;;;;;;;5.13;100.00;100358.56;10255496;28;20141;-76
2024/01/20 15:47:34;;;;;;;23.85;15.23;;;;;;;5.03;100.00;100361.16;10255416;28;20050;-76
2024/01/20 15:52:35;;;;;;;26.00;18.30;;;;;;;5.13;100.00;100364.66;10254432;28;20051;-76
2024/01/20 15:57:36;;;;;;;25.08;17.10;;;;;;;4.91;100.00;100365.69;10254984;28;20050;-76
2024/01/20 16:02:37;;;;;;;21.13;14.73;;;;;;;4.16;100.00;100284.34;10254364;28;20036;-76
2024/01/20 16:07:38;;;;;;;21.52;12.95;;;;;;;4.53;100.00;100361.84;10254041;28;20522;-75
2024/01/20 16:12:39;;;;;;;18.02;12.15;;;;;;;4.35;100.00;100358.13;10253898;28;20047;-76
2024/01/20 16:17:40;;;;;;;16.92;11.57;;;;;;;4.28;100.00;100381.47;10253510;28;20047;-75
2024/01/20 16:22:41;;;;;;;32.67;12.63;;;;;;;4.11;100.00;100380.22;10253998;28;20098;-73
2024/01/20 16:27:42;;;;;;;19.85;11.00;;;;;;;3.72;100.00;100323.88;10252796;28;20105;-76
2024/01/20 16:32:45;;;;;;;16.38;11.23;;;;;;;3.60;100.00;100338.81;10252795;28;20039;-76
2024/01/20 16:37:46;;;;;;;31.92;11.13;;;;;;;3.59;100.00;100366.06;10251748;28;20054;-76
2024/01/20 16:42:48;;;;;;;16.80;11.25;;;;;;;3.29;100.00;100339.59;10253081;28;20562;-76
2024/01/20 16:47:49;;;;;;;16.63;11.02;;;;;;;3.19;100.00;100345.56;10253586;28;20128;-77
2024/01/20 16:52:50;;;;;;;15.25;10.75;;;;;;;3.15;100.00;100359.88;10252312;28;20039;-76
2024/01/20 16:57:52;;;;;;;17.35;11.02;;;;;;;3.30;100.00;100343.91;10252855;28;20054;-76
2024/01/20 17:02:55;;;;;;;16.73;10.95;;;;;;;3.35;100.00;100344.34;10252070;28;20415;-76
2024/01/20 17:07:56;;;;;;;17.05;11.82;;;;;;;3.45;100.00;100347.94;10251119;28;20058;-75
2024/01/20 17:12:57;;;;;;;16.02;10.63;;;;;;;3.30;100.00;100364.91;10252247;28;20046;-76
2024/01/20 17:17:58;;;;;;;20.15;11.45;;;;;;;3.23;100.00;100363.69;10252085;28;20043;-77
2024/01/20 17:22:59;;;;;;;16.25;10.18;;;;;;;2.81;100.00;100324.09;10251444;28;20044;-76
2024/01/20 17:28:00;;;;;;;20.75;12.77;;;;;;;2.73;100.00;100372.75;10252627;28;20079;-75
2024/01/20 17:33:01;;;;;;;24.05;12.68;;;;;;;2.65;100.00;100376.91;10250932;29;20130;-76
2024/01/20 17:38:01;;;;;;;26.10;14.50;;;;;;;2.65;100.00;100382.97;10252064;28;20047;-76
2024/01/20 17:43:02;;;;;;;24.58;13.23;;;;;;;2.50;100.00;100369.22;10256310;28;20110;-76
2024/01/20 17:48:04;;;;;;;20.92;12.23;;;;;;;2.40;100.00;100362.19;10259482;28;20039;-76
2024/01/20 17:53:04;;;;;;;21.77;11.55;;;;;;;2.20;100.00;100342.69;10260563;28;20039;-77
2024/01/20 17:58:06;;;;;;;17.13;11.63;;;;;;;2.25;100.00;100335.34;10259273;28;20543;-77
2024/01/20 18:03:07;;;;;;;17.00;11.60;;;;;;;2.46;100.00;100323.22;10259179;28;20043;-77
2024/01/20 18:08:08;;;;;;;22.92;11.95;;;;;;;2.32;100.00;100314.75;10259330;28;20130;-76
2024/01/20 18:13:10;;;;;;;17.60;11.35;;;;;;;2.21;100.00;100294.56;10258809;28;20126;-78
2024/01/20 18:18:11;;;;;;;27.95;12.32;;;;;;;2.29;100.00;100303.53;10258024;28;20051;-78
2024/01/20 18:23:12;;;;;;;19.52;12.27;;;;;;;1.94;100.00;100260.78;10258077;28;20459;-78
2024/01/20 18:28:13;;;;;;;17.10;11.63;;;;;;;2.23;100.00;100300.53;10258426;28;20070;-78
2024/01/20 18:33:14;;;;;;;36.97;12.27;;;;;;;2.23;100.00;100306.59;10257203;28;20047;-77
2024/01/20 18:38:15;;;;;;;29.08;12.70;;;;;;;2.06;100.00;100296.53;10258409;28;20393;-79
2024/01/20 18:43:16;;;;;;;24.10;13.80;;;;;;;1.90;100.00;100298.66;10257897;28;20054;-80
2024/01/20 18:48:17;;;;;;;26.45;14.65;;;;;;;1.64;100.00;100282.22;10257584;28;20043;-79
2024/01/20 18:53:18;;;;;;;23.02;13.55;;;;;;;1.60;100.00;100279.00;10255861;28;20071;-80
2024/01/20 18:58:19;;;;;;;24.30;13.73;;;;;;;1.72;100.00;100280.72;10256589;29;20066;-81
2024/01/20 19:03:19;;;;;;;25.23;14.25;;;;;;;1.48;100.00;100227.53;10256522;28;20055;-80
2024/01/20 19:08:20;;;;;;;37.22;13.77;;;;;;;1.34;100.00;100211.03;10256248;28;20047;-79
2024/01/20 19:13:21;;;;;;;22.33;13.10;;;;;;;1.62;100.00;100248.31;10255890;28;20090;-79
2024/01/20 19:18:22;;;;;;;21.85;12.23;;;;;;;1.85;100.00;100248.38;10257237;28;20399;-79
2024/01/20 19:23:22;;;;;;;20.20;11.50;;;;;;;1.48;100.00;100201.38;10256361;28;20043;-79
2024/01/20 19:28:23;;;;;;;21.85;12.18;;;;;;;1.69;100.00;100239.03;10254854;29;20063;-79
2024/01/20 19:33:24;;;;;;;22.45;12.90;;;;;;;1.62;100.00;100232.59;10256154;28;20043;-78
2024/01/20 19:38:24;;;;;;;19.15;12.02;;;;;;;1.31;100.00;100184.28;10253505;28;20039;-75
2024/01/20 19:43:25;;;;;;;25.45;12.43;;;;;;;1.00;100.00;100144.66;10255187;28;20133;-76
2024/01/20 19:48:26;;;;;;;19.98;12.48;;;;;;;1.31;100.00;100198.19;10254913;28;20043;-76
2024/01/20 19:53:27;;;;;;;21.20;13.00;;;;;;;1.27;100.00;100143.59;10255645;28;20054;-76
2024/01/20 19:58:28;;;;;;;22.27;13.40;;;;;;;1.27;100.00;100159.28;10253189;29;20047;-74
2024/01/20 20:03:30;;;;;;;23.90;13.13;;;;;;;1.42;100.00;100209.66;10254611;28;20043;-76
2024/01/20 20:08:31;;;;;;;24.48;14.02;;;;;;;1.44;100.00;100207.78;10254011;28;20039;-76
2024/01/20 20:13:32;;;;;;;20.25;12.30;;;;;;;1.37;100.00;100215.22;10253940;28;20122;-76
2024/01/20 20:18:32;;;;;;;21.23;12.75;;;;;;;0.97;100.00;100151.91;10253592;28;20518;-76
2024/01/20 20:23:33;;;;;;;24.63;12.82;;;;;;;1.19;100.00;100198.25;10253459;28;20046;-79
2024/01/20 20:28:34;;;;;;;23.55;12.88;;;;;;;1.10;100.00;100202.38;10253762;28;20043;-79
2024/01/20 20:33:35;;;;;;;41.33;13.50;;;;;;;0.89;100.00;100181.22;10253419;28;20046;-78
2024/01/20 20:38:36;;;;;;;25.13;14.63;;;;;;;0.74;100.00;100143.91;10252871;28;20043;-79
2024/01/20 20:43:37;;;;;;;25.33;14.25;;;;;;;1.15;100.00;100187.19;10253282;28;20063;-79
2024/01/20 20:48:37;;;;;;;23.52;13.57;;;;;;;1.32;100.00;100184.19;10253195;28;20051;-79
2024/01/20 20:53:38;;;;;;;26.15;14.68;;;;;;;1.44;100.00;100181.59;10252449;28;20074;-79
2024/01/20 20:58:39;;;;;;;29.95;14.98;;;;;;;1.48;100.00;100173.41;10252004;28;20042;-78
2024/01/20 21:03:39;;;;;;;23.20;13.82;;;;;;;1.20;100.00;100158.91;10252542;28;20043;-79
2024/01/20 21:08:40;;;;;;;21.35;13.23;;;;;;;1.29;100.00;100155.63;10251585;28;20035;-79
2024/01/20 21:13:41;;;;;;;25.83;13.85;;;;;;;1.34;100.00;100171.78;10252186;28;20047;-79
2024/01/20 21:18:42;;;;;;;23.55;14.23;;;;;;;1.19;100.00;100166.84;10251035;28;20043;-78
2024/01/20 21:23:44;;;;;;;24.70;14.63;;;;;;;1.21;100.00;100155.34;10252096;28;20043;-76
2024/01/20 21:28:45;;;;;;;24.83;14.52;;;;;;;0.98;100.00;100111.72;10251674;28;20081;-79
2024/01/20 21:33:46;;;;;;;22.67;13.27;;;;;;;0.99;100.00;100102.91;10252256;28;20074;-78
2024/01/20 21:38:46;;;;;;;24.67;14.55;;;;;;;1.49;100.00;100137.59;10251073;28;20047;-78
2024/01/20 21:43:47;;;;;;;30.25;15.70;;;;;;;1.74;100.00;100126.09;10251324;28;20059;-79
2024/01/20 21:48:49;;;;;;;26.55;15.07;;;;;;;1.98;100.00;100124.22;10251700;28;20039;-79
2024/01/20 21:53:49;;;;;;;26.60;14.40;;;;;;;2.10;100.00;100122.44;10251338;28;20185;-78
2024/01/20 21:58:50;;;;;;;23.95;14.77;;;;;;;2.17;100.00;100141.97;10250759;28;20098;-78
2024/01/20 22:03:51;;;;;;;22.27;14.20;;;;;;;2.11;100.00;100142.44;10250928;28;20079;-78
2024/01/20 22:08:52;;;;;;;21.92;14.20;;;;;;;2.09;100.00;100139.09;10251248;28;20043;-78
2024/01/20 22:13:52;;;;;;;20.73;13.07;;;;;;;2.03;100.00;100136.94;10250439;28;20045;-78
2024/01/20 22:18:53;;;;;;;24.17;14.10;;;;;;;2.03;100.00;100150.91;10249290;29;20047;-78
2024/01/20 22:23:55;;;;;;;22.95;13.77;;;;;;;1.64;100.00;100094.53;10250427;28;20062;-78
2024/01/20 22:28:55;;;;;;;25.58;14.25;;;;;;;1.97;100.00;100133.00;10254294;28;20043;-76
2024/01/20 22:33:56;;;;;;;24.83;14.20;;;;;;;2.03;100.00;100127.34;10257705;28;20134;-78
2024/01/20 22:38:58;;;;;;;21.95;13.48;;;;;;;2.09;100.00;100131.25;10257879;28;20123;-78
2024/01/20 22:43:58;;;;;;;27.20;14.95;;;;;;;2.16;100.00;100121.97;10257908;28;20063;-78